Time;durP1;ratioP1;P1;durP2;ratioP2;P2;SDS_P1;SDS_P2;PMS_P1;PMS_P2;Temp;Humidity;BMP_temperature;BMP_pressure;BME280_temperature;BME280_humidity;BME280_pressure;Samples;Min_cycle;Max_cycle;Signal;HPM_P1;HPM_P2
2022/10/03 00:01:27;;;;;;;12.80;3.73;;;11.10;99.90;;;;;;5032895;28;20407;-71
2022/10/03 00:04:07;;;;;;;14.35;2.47;;;11.10;99.90;;;;;;5032172;28;20077;-72
2022/10/03 00:06:56;;;;;;;26.38;3.38;;;11.20;99.90;;;;;;5032733;28;20399;-72
2022/10/03 00:09:46;;;;;;;16.08;2.60;;;11.20;99.90;;;;;;5032333;28;20041;-72
2022/10/03 00:12:17;;;;;;;11.93;2.83;;;11.20;99.90;;;;;;5004765;28;20061;-72
2022/10/03 00:15:04;;;;;;;17.65;3.42;;;11.20;99.90;;;;;;5032149;28;20041;-71
2022/10/03 00:17:44;;;;;;;7.45;2.30;;;11.30;99.90;;;;;;5032479;28;20037;-71
2022/10/03 00:20:51;;;;;;;16.38;2.30;;;11.40;99.90;;;;;;5032314;28;20041;-72
2022/10/03 00:23:46;;;;;;;20.48;3.90;;;11.40;99.90;;;;;;5032006;28;20166;-71
2022/10/03 00:26:27;;;;;;;17.92;2.45;;;11.30;99.90;;;;;;5032115;28;20042;-73
2022/10/03 00:29:01;;;;;;;11.93;2.25;;;11.30;99.90;;;;;;5032054;28;20042;-72
2022/10/03 00:31:59;;;;;;;11.07;2.42;;;11.40;99.90;;;;;;5032312;28;20499;-72
2022/10/03 00:34:49;;;;;;;14.45;2.30;;;11.40;99.90;;;;;;5014423;28;20045;-72
2022/10/03 00:37:34;;;;;;;15.90;2.70;;;11.50;99.90;;;;;;5032149;28;20038;-72
2022/10/03 00:40:17;;;;;;;15.63;2.55;;;11.50;99.90;;;;;;5033069;28;20044;-72
2022/10/03 00:42:59;;;;;;;;;;;11.50;99.90;;;;;;5031768;28;20498;-73
2022/10/03 00:45:54;;;;;;;13.00;2.88;;;11.40;99.90;;;;;;5033025;28;19970;-72
2022/10/03 00:48:34;;;;;;;12.63;2.38;;;11.40;99.90;;;;;;5014960;28;20052;-73
2022/10/03 00:51:25;;;;;;;11.73;2.50;;;11.50;99.90;;;;;;5031484;28;20040;-72
2022/10/03 00:54:24;;;;;;;12.73;2.65;;;11.40;99.90;;;;;;5031506;28;20048;-73
2022/10/03 00:57:19;;;;;;;11.65;3.47;;;11.60;99.90;;;;;;5031593;28;20091;-73
2022/10/03 00:59:47;;;;;;;11.32;2.53;;;11.60;99.90;;;;;;5031719;28;20045;-72
2022/10/03 01:02:48;;;;;;;13.02;2.65;;;11.40;99.90;;;;;;5031559;28;20425;-73
2022/10/03 01:05:37;;;;;;;19.58;2.53;;;11.50;99.90;;;;;;5031999;28;20515;-72
2022/10/03 01:08:33;;;;;;;16.05;2.72;;;11.50;99.90;;;;;;5031484;28;20449;-73
2022/10/03 01:11:12;;;;;;;13.48;2.90;;;11.40;99.90;;;;;;5031283;28;20534;-73
2022/10/03 01:13:37;;;;;;;11.50;2.88;;;11.50;99.90;;;;;;5030888;28;20033;-72
2022/10/03 01:16:30;;;;;;;16.77;2.22;;;11.60;99.90;;;;;;5032607;28;20407;-73
2022/10/03 01:19:26;;;;;;;15.63;2.55;;;11.60;99.90;;;;;;5015036;28;20087;-73
2022/10/03 01:22:13;;;;;;;11.75;2.92;;;11.50;99.90;;;;;;5032396;28;20037;-73
2022/10/03 01:24:58;;;;;;;12.45;2.33;;;11.50;99.90;;;;;;5030718;28;20048;-73
2022/10/03 01:30:42;;;;;;;16.73;2.78;;;11.70;99.90;;;;;;5032159;28;20143;-73
2022/10/03 01:33:14;;;;;;;10.82;2.03;;;11.50;99.90;;;;;;5030592;28;20163;-73
2022/10/03 01:36:11;;;;;;;15.43;2.00;;;11.70;99.90;;;;;;5030924;28;20049;-74
2022/10/03 01:39:13;;;;;;;11.13;2.10;;;11.60;99.90;;;;;;5032172;28;20041;-73
2022/10/03 01:42:00;;;;;;;12.27;2.88;;;11.70;99.90;;;;;;5030818;28;20045;-74
2022/10/03 01:44:48;;;;;;;13.88;2.72;;;11.70;99.90;;;;;;5030754;28;20046;-73
2022/10/03 01:47:46;;;;;;;12.95;2.83;;;11.60;99.90;;;;;;5014314;28;20084;-73
2022/10/03 01:50:25;;;;;;;15.07;2.90;;;11.60;99.90;;;;;;5014262;28;20052;-73
2022/10/03 01:53:03;;;;;;;8.30;1.90;;;11.70;99.90;;;;;;5031545;28;20120;-73
2022/10/03 01:56:09;;;;;;;15.57;2.50;;;11.70;99.90;;;;;;5030646;28;20048;-73
2022/10/03 01:58:59;;;;;;;18.88;2.55;;;11.50;99.90;;;;;;5030578;28;20102;-73
2022/10/03 02:02:17;;;;;;;12.35;2.67;;;11.60;99.90;;;;;;5030663;28;20124;-73
2022/10/03 02:05:06;;;;;;;10.40;2.33;;;11.40;99.90;;;;;;4960727;28;20469;-73
2022/10/03 02:07:59;;;;;;;10.65;1.90;;;11.50;99.90;;;;;;5030329;28;20045;-72
2022/10/03 02:10:39;;;;;;;14.90;2.40;;;11.40;99.90;;;;;;5013947;28;20041;-73
2022/10/03 02:13:27;;;;;;;14.13;2.35;;;11.50;99.90;;;;;;5030121;28;20037;-73
2022/10/03 02:16:27;;;;;;;16.90;2.35;;;11.40;99.90;;;;;;5030253;28;20044;-73
2022/10/03 02:19:12;;;;;;;15.50;2.60;;;11.40;99.90;;;;;;5030636;28;20124;-72
2022/10/03 02:21:53;;;;;;;10.07;2.60;;;11.50;99.90;;;;;;5030338;28;20033;-73
2022/10/03 02:24:36;;;;;;;10.88;2.50;;;11.40;99.90;;;;;;5029810;28;20045;-73
2022/10/03 02:27:26;;;;;;;11.95;1.83;;;11.50;99.90;;;;;;5030751;28;20406;-73
2022/10/03 02:30:03;;;;;;;9.40;2.10;;;11.60;99.90;;;;;;5030140;28;20076;-73
2022/10/03 02:33:16;;;;;;;10.30;1.90;;;11.50;99.90;;;;;;5030128;28;20408;-73
2022/10/03 02:35:47;;;;;;;11.88;2.80;;;11.40;99.90;;;;;;5030167;28;20064;-73
2022/10/03 02:38:36;;;;;;;13.13;2.00;;;11.40;99.90;;;;;;5030373;28;20045;-73
2022/10/03 02:41:26;;;;;;;8.82;2.30;;;11.50;99.90;;;;;;5030048;28;20092;-73
2022/10/03 02:44:19;;;;;;;12.43;2.42;;;11.60;99.90;;;;;;5029962;28;20545;-73
2022/10/03 02:47:17;;;;;;;11.73;2.40;;;11.50;99.90;;;;;;5029994;28;20046;-73
2022/10/03 02:50:08;;;;;;;11.15;1.90;;;11.40;99.90;;;;;;5029999;28;20045;-73
2022/10/03 02:52:54;;;;;;;20.52;2.92;;;11.60;99.90;;;;;;5029958;28;20037;-73
2022/10/03 02:55:38;;;;;;;16.27;1.98;;;11.60;99.90;;;;;;5019771;28;20122;-73
2022/10/03 02:58:25;;;;;;;12.98;1.90;;;11.60;99.90;;;;;;5030224;28;20042;-73
2022/10/03 03:01:36;;;;;;;12.70;2.20;;;11.60;99.90;;;;;;5029895;28;20085;-73
2022/10/03 03:04:43;;;;;;;11.45;3.03;;;11.50;99.90;;;;;;5029517;28;20118;-73
2022/10/03 03:07:49;;;;;;;12.18;2.20;;;11.60;99.90;;;;;;5031365;28;20048;-73
2022/10/03 03:10:15;;;;;;;10.63;1.83;;;11.70;99.90;;;;;;5013403;28;20541;-73
2022/10/03 03:13:14;;;;;;;13.43;1.98;;;11.50;99.90;;;;;;5029623;28;20037;-73
2022/10/03 03:15:45;;;;;;;13.65;2.40;;;11.60;99.90;;;;;;5030095;28;20136;-73
2022/10/03 03:18:29;;;;;;;8.48;1.90;;;11.70;99.90;;;;;;5030068;28;20037;-73
2022/10/03 03:21:17;;;;;;;13.68;2.03;;;11.80;99.90;;;;;;5029793;28;20042;-73
2022/10/03 03:23:54;;;;;;;11.05;3.10;;;11.70;99.90;;;;;;5030482;28;20491;-73
2022/10/03 03:26:38;;;;;;;13.15;2.22;;;11.80;99.90;;;;;;5033426;28;20052;-73
2022/10/03 03:29:32;;;;;;;10.38;2.13;;;11.80;99.90;;;;;;5016545;28;20407;-73
2022/10/03 03:32:27;;;;;;;8.05;1.70;;;11.80;99.90;;;;;;5033235;28;20043;-73
2022/10/03 03:35:21;;;;;;;10.77;2.17;;;11.80;99.90;;;;;;5033064;28;20041;-73
2022/10/03 03:37:53;;;;;;;12.63;1.98;;;11.90;99.90;;;;;;5033384;28;20090;-73
2022/10/03 03:40:43;;;;;;;7.97;1.92;;;11.80;99.90;;;;;;5033290;28;20041;-73
2022/10/03 03:43:17;;;;;;;9.77;2.17;;;11.70;99.90;;;;;;5034017;28;20094;-73
2022/10/03 03:45:59;;;;;;;12.90;2.08;;;11.90;99.90;;;;;;5033051;28;20049;-73
2022/10/03 03:48:30;;;;;;;14.25;2.78;;;11.70;99.90;;;;;;5033256;28;20064;-73
2022/10/03 03:51:32;;;;;;;16.25;2.60;;;11.80;99.90;;;;;;5033040;28;20044;-73
2022/10/03 03:54:00;;;;;;;11.38;2.22;;;11.70;99.90;;;;;;5032462;28;20037;-73
2022/10/03 03:56:34;;;;;;;14.30;2.20;;;11.60;99.90;;;;;;5032734;28;20403;-73
2022/10/03 03:59:21;;;;;;;20.23;2.47;;;11.60;99.90;;;;;;5034034;28;20119;-73
2022/10/03 04:02:11;;;;;;;11.05;2.20;;;11.70;99.90;;;;;;5032606;28;20539;-73
2022/10/03 04:05:00;;;;;;;7.20;1.77;;;11.60;99.90;;;;;;5032302;28;20128;-73
2022/10/03 04:08:11;;;;;;;12.57;2.10;;;11.70;99.90;;;;;;5032537;28;20037;-73
2022/10/03 04:10:52;;;;;;;10.13;1.60;;;11.70;99.90;;;;;;5032478;28;20052;-73
2022/10/03 04:13:23;;;;;;;13.75;2.28;;;11.60;99.90;;;;;;5015549;28;20037;-73
2022/10/03 04:16:12;;;;;;;9.63;2.55;;;11.70;99.90;;;;;;5032384;28;20064;-73
2022/10/03 04:19:06;;;;;;;12.45;1.60;;;11.70;99.90;;;;;;5032624;28;20407;-73
2022/10/03 04:21:50;;;;;;;;;;;11.80;99.90;;;;;;5032720;28;20517;-73
2022/10/03 04:24:46;;;;;;;9.93;2.63;;;11.70;99.90;;;;;;5031702;28;19916;-74
2022/10/03 04:27:11;;;;;;;13.20;2.38;;;11.60;99.90;;;;;;5032229;28;20049;-73
2022/10/03 04:30:14;;;;;;;13.00;2.05;;;11.70;99.90;;;;;;5032106;28;20057;-73
2022/10/03 04:33:01;;;;;;;10.45;1.80;;;11.80;99.90;;;;;;5031961;28;20053;-73
2022/10/03 04:36:01;;;;;;;13.00;1.90;;;11.80;99.90;;;;;;5031825;28;20037;-73
2022/10/03 04:38:26;;;;;;;11.02;2.47;;;11.80;99.90;;;;;;5032009;28;20479;-73
2022/10/03 04:41:08;;;;;;;9.73;1.92;;;11.70;99.90;;;;;;5031800;28;20046;-73
2022/10/03 04:43:52;;;;;;;12.32;2.40;;;11.70;99.90;;;;;;5031281;28;20045;-73
2022/10/03 04:46:46;;;;;;;11.82;2.28;;;11.80;99.90;;;;;;5033213;28;20033;-73
2022/10/03 04:49:26;;;;;;;17.48;2.17;;;11.70;99.90;;;;;;5031598;28;20091;-72
2022/10/03 04:52:05;;;;;;;13.02;2.25;;;11.60;99.90;;;;;;5015180;28;20042;-74
2022/10/03 04:54:34;;;;;;;13.88;2.20;;;11.70;99.90;;;;;;5031314;28;20514;-74
2022/10/03 04:57:37;;;;;;;16.25;2.25;;;11.70;99.90;;;;;;5031617;28;20037;-74
2022/10/03 05:00:03;;;;;;;18.65;2.38;;;11.60;99.90;;;;;;5031788;28;20462;-74
2022/10/03 05:03:10;;;;;;;12.82;2.17;;;11.50;99.90;;;;;;5031286;28;20088;-74
2022/10/03 05:05:55;;;;;;;10.98;2.83;;;11.60;99.90;;;;;;4996403;28;20076;-74
2022/10/03 05:08:32;;;;;;;13.48;2.45;;;11.40;99.90;;;;;;5031360;28;20418;-74
2022/10/03 05:11:19;;;;;;;10.63;2.60;;;11.60;99.90;;;;;;5031767;28;20045;-74
2022/10/03 05:13:56;;;;;;;13.38;3.80;;;11.40;99.90;;;;;;5030757;28;20037;-74
2022/10/03 05:16:50;;;;;;;7.65;1.90;;;11.60;99.90;;;;;;5028102;28;20079;-74
2022/10/03 05:19:40;;;;;;;10.13;2.10;;;11.50;99.90;;;;;;5029205;28;20521;-74
2022/10/03 05:22:43;;;;;;;16.15;2.72;;;11.50;99.90;;;;;;5029825;28;20064;-74
2022/10/03 05:25:38;;;;;;;15.65;3.40;;;11.30;99.90;;;;;;5081275;22;20049;-72
2022/10/03 05:28:22;;;;;;;9.02;1.95;;;11.30;99.90;;;;;;5059727;28;20060;-72
2022/10/03 05:30:57;;;;;;;13.40;2.35;;;11.30;99.90;;;;;;5069341;28;20036;-73
2022/10/03 05:33:49;;;;;;;14.32;2.88;;;11.30;99.90;;;;;;5071206;28;20036;-74
2022/10/03 05:36:34;;;;;;;9.30;2.37;;;11.40;99.90;;;;;;5092597;28;20036;-73
2022/10/03 05:39:21;;;;;;;14.30;2.50;;;11.40;99.90;;;;;;5092235;28;20436;-73
2022/10/03 05:42:10;;;;;;;12.30;2.15;;;11.30;99.90;;;;;;5074214;28;20089;-73
2022/10/03 05:44:47;;;;;;;15.77;2.80;;;11.20;99.90;;;;;;5044530;28;20087;-72
2022/10/03 05:50:40;;;;;;;11.60;2.25;;;11.20;99.90;;;;;;5088714;28;20125;-73
2022/10/03 05:53:36;;;;;;;14.23;4.22;;;11.30;99.90;;;;;;5070442;28;20121;-72
2022/10/03 05:56:38;;;;;;;12.13;2.72;;;11.10;99.90;;;;;;5070591;28;20069;-72
2022/10/03 05:59:41;;;;;;;9.52;2.80;;;11.20;99.90;;;;;;5071773;28;20561;-73
2022/10/03 06:02:32;;;;;;;15.05;1.88;;;11.20;99.90;;;;;;5071654;28;20571;-73
2022/10/03 06:04:57;;;;;;;12.40;2.00;;;11.20;99.90;;;;;;5070200;28;20036;-72
2022/10/03 06:07:48;;;;;;;11.18;2.72;;;11.20;99.90;;;;;;5053596;28;20124;-73
2022/10/03 06:10:38;;;;;;;7.32;2.20;;;11.10;99.90;;;;;;5053677;28;20502;-73
2022/10/03 06:13:10;;;;;;;19.52;3.33;;;11.20;99.90;;;;;;5070053;28;20040;-73
2022/10/03 06:15:53;;;;;;;10.32;2.20;;;11.10;99.90;;;;;;5075549;28;20037;-73
2022/10/03 06:18:25;;;;;;;9.93;2.03;;;11.20;99.90;;;;;;5070385;28;20040;-73
2022/10/03 06:21:22;;;;;;;15.57;2.88;;;11.10;99.90;;;;;;5070318;28;20151;-71
2022/10/03 06:24:11;;;;;;;10.05;1.98;;;11.30;99.90;;;;;;5069780;28;20493;-75
2022/10/03 06:27:09;;;;;;;13.27;2.22;;;11.20;99.90;;;;;;5070478;28;20044;-73
2022/10/03 06:29:55;;;;;;;10.13;2.22;;;11.30;99.90;;;;;;5070254;28;20110;-73
2022/10/03 06:32:47;;;;;;;11.82;2.20;;;11.20;99.90;;;;;;5069948;28;20490;-73
2022/10/03 06:35:38;;;;;;;9.50;2.72;;;11.50;99.90;;;;;;5070176;28;20044;-73
2022/10/03 06:38:43;;;;;;;6.90;1.67;;;11.50;99.90;;;;;;5070148;28;20122;-74
2022/10/03 06:41:33;;;;;;;11.73;2.42;;;11.50;99.90;;;;;;5070202;28;20041;-71
2022/10/03 06:44:44;;;;;;;13.10;2.08;;;11.80;99.90;;;;;;5071070;28;20045;-73
2022/10/03 06:47:25;;;;;;;12.05;2.03;;;11.90;99.90;;;;;;5070373;28;20731;-73
2022/10/03 06:50:20;;;;;;;8.93;1.88;;;12.00;99.90;;;;;;5071383;28;20049;-73
2022/10/03 06:53:04;;;;;;;9.90;1.92;;;12.10;99.90;;;;;;5070822;28;20033;-73
2022/10/03 06:55:49;;;;;;;;;;;12.40;99.90;;;;;;5077081;28;20036;-73
2022/10/03 06:58:54;;;;;;;11.95;2.35;;;12.50;99.90;;;;;;5080025;28;19916;-73
2022/10/03 07:01:28;;;;;;;8.02;1.67;;;12.70;99.90;;;;;;5093304;28;20040;-73
2022/10/03 07:04:23;;;;;;;6.40;1.95;;;12.80;99.90;;;;;;5090421;28;20123;-73
2022/10/03 07:06:57;;;;;;;6.95;1.50;;;13.10;99.90;;;;;;5088368;28;20123;-72
2022/10/03 07:09:32;;;;;;;10.25;2.17;;;13.30;99.90;;;;;;5058363;28;20570;-74
2022/10/03 07:12:25;;;;;;;11.57;2.30;;;13.30;99.90;;;;;;5082097;28;20482;-74
2022/10/03 07:15:41;;;;;;;7.65;2.08;;;13.60;99.90;;;;;;5085494;28;20058;-73
2022/10/03 07:18:49;;;;;;;10.07;2.38;;;13.70;99.90;;;;;;5088986;28;20066;-73
2022/10/03 07:21:50;;;;;;;8.70;1.98;;;14.00;99.90;;;;;;5093943;28;20123;-74
2022/10/03 07:24:39;;;;;;;10.23;2.35;;;13.90;99.90;;;;;;5022583;28;20072;-74
2022/10/03 07:27:32;;;;;;;14.68;2.47;;;14.10;99.90;;;;;;5087351;28;20043;-74
2022/10/03 07:30:03;;;;;;;13.18;2.53;;;14.30;99.90;;;;;;5066525;28;20036;-74
2022/10/03 07:32:46;;;;;;;10.23;2.33;;;14.50;99.90;;;;;;5093059;28;20047;-74
2022/10/03 07:35:14;;;;;;;6.85;2.22;;;14.40;99.90;;;;;;5093297;28;20032;-75
2022/10/03 07:41:02;;;;;;;8.45;2.35;;;14.80;99.90;;;;;;5093477;28;20074;-74
2022/10/03 07:43:58;;;;;;;11.38;2.05;;;15.00;99.90;;;;;;5092853;28;20032;-74
2022/10/03 07:46:51;;;;;;;14.75;2.08;;;15.00;99.90;;;;;;5093166;28;20036;-75
2022/10/03 07:49:36;;;;;;;8.73;2.63;;;15.00;99.90;;;;;;5092673;28;20109;-73
2022/10/03 07:52:16;;;;;;;8.18;1.90;;;15.30;99.90;;;;;;5092783;28;20114;-74
2022/10/03 07:55:13;;;;;;;11.68;2.38;;;15.20;99.90;;;;;;5076171;28;20126;-76
2022/10/03 07:58:00;;;;;;;7.60;1.75;;;15.30;99.90;;;;;;5085344;28;20032;-74
2022/10/03 08:01:26;;;;;;;9.95;1.92;;;15.50;99.90;;;;;;5077207;28;20037;-73
2022/10/03 08:04:00;;;;;;;7.72;1.52;;;15.60;99.90;;;;;;5051279;28;20049;-73
2022/10/03 08:06:53;;;;;;;9.23;1.85;;;15.80;99.90;;;;;;5030908;28;20041;-73
2022/10/03 08:09:36;;;;;;;7.15;1.70;;;15.80;99.90;;;;;;5064223;28;20052;-74
2022/10/03 08:12:21;;;;;;;;;;;16.00;99.90;;;;;;5092549;28;20031;-73
2022/10/03 08:14:46;;;;;;;9.50;2.17;;;15.90;99.90;;;;;;5091412;28;19920;-74
2022/10/03 08:17:30;;;;;;;11.25;1.80;;;16.20;99.90;;;;;;5061916;28;20109;-73
2022/10/03 08:20:22;;;;;;;6.65;1.60;;;16.30;99.90;;;;;;5081618;28;20456;-73
2022/10/03 08:22:55;;;;;;;13.00;2.08;;;16.30;99.90;;;;;;5079700;28;20119;-73
2022/10/03 08:25:35;;;;;;;6.85;1.52;;;16.30;99.90;;;;;;5086227;28;20587;-73
2022/10/03 08:28:39;;;;;;;10.10;1.98;;;16.40;99.90;;;;;;5072306;28;20524;-74
2022/10/03 08:31:30;;;;;;;14.63;2.42;;;16.70;99.90;;;;;;5072154;28;20041;-71
2022/10/03 08:34:05;;;;;;;13.65;1.77;;;16.60;99.90;;;;;;5086817;28;20047;-74
2022/10/03 08:37:01;;;;;;;10.20;1.73;;;16.60;99.90;;;;;;5091862;28;20049;-73
2022/10/03 08:39:45;;;;;;;6.38;1.33;;;16.70;99.90;;;;;;5075098;28;20048;-73
2022/10/03 08:43:04;;;;;;;9.77;1.20;;;16.70;99.90;;;;;;5074785;28;20050;-76
2022/10/03 08:46:18;;;;;;;7.15;1.52;;;16.60;99.90;;;;;;5091284;28;20051;-73
2022/10/03 08:48:53;;;;;;;9.13;1.30;;;16.70;99.90;;;;;;5006410;28;20049;-74
2022/10/03 08:51:25;;;;;;;7.43;1.50;;;16.60;99.90;;;;;;5080637;28;20082;-73
2022/10/03 08:54:05;;;;;;;11.52;1.63;;;16.80;99.90;;;;;;5083401;28;20047;-73
2022/10/03 08:56:56;;;;;;;7.82;1.67;;;16.70;99.90;;;;;;5065003;28;20130;-73
2022/10/03 08:59:44;;;;;;;9.70;1.40;;;16.80;99.90;;;;;;5074470;28;20041;-74
2022/10/03 09:02:40;;;;;;;14.40;2.42;;;16.60;99.90;;;;;;5071462;28;20043;-75
2022/10/03 09:05:39;;;;;;;19.85;2.63;;;16.70;99.90;;;;;;5085125;28;20047;-72
2022/10/03 09:08:38;;;;;;;11.60;1.60;;;16.60;99.90;;;;;;5073876;28;20048;-73
2022/10/03 09:11:29;;;;;;;7.63;1.25;;;16.50;99.90;;;;;;5090804;28;20039;-73
2022/10/03 09:14:26;;;;;;;9.48;1.67;;;16.60;99.90;;;;;;5073692;28;20459;-72
2022/10/03 09:16:51;;;;;;;7.75;1.30;;;16.50;99.90;;;;;;5090439;28;20040;-73
2022/10/03 09:20:01;;;;;;;10.30;1.30;;;16.50;99.90;;;;;;5073913;28;20043;-74
2022/10/03 09:23:04;;;;;;;10.50;2.10;;;16.40;99.90;;;;;;5090438;28;20382;-74
2022/10/03 09:25:51;;;;;;;5.10;1.33;;;16.30;99.90;;;;;;5090578;28;20055;-74
2022/10/03 09:29:02;;;;;;;9.40;1.73;;;16.40;99.90;;;;;;5073544;28;20073;-74
2022/10/03 09:31:41;;;;;;;8.35;1.67;;;16.30;99.90;;;;;;5086145;28;20036;-73
2022/10/03 09:34:26;;;;;;;7.75;1.40;;;16.10;99.90;;;;;;5079399;28;20648;-73
2022/10/03 09:37:25;;;;;;;8.63;1.15;;;16.10;99.90;;;;;;5078811;28;20150;-73
2022/10/03 09:40:35;;;;;;;10.75;1.85;;;16.20;99.90;;;;;;5080013;28;20051;-73
2022/10/03 09:43:21;;;;;;;8.27;2.28;;;16.20;99.90;;;;;;5070987;28;20616;-75
2022/10/03 09:46:11;;;;;;;6.35;1.50;;;16.10;99.90;;;;;;5072285;28;20180;-71
2022/10/03 09:48:38;;;;;;;9.38;1.40;;;16.10;99.90;;;;;;5084828;28;20040;-73
2022/10/03 09:51:17;;;;;;;8.20;1.70;;;16.20;99.90;;;;;;5089975;28;20054;-73
2022/10/03 09:54:10;;;;;;;6.82;1.30;;;16.10;99.90;;;;;;5079171;28;20559;-74
2022/10/03 09:56:50;;;;;;;7.40;1.90;;;16.20;99.90;;;;;;5053575;28;20064;-73
2022/10/03 09:59:51;;;;;;;10.88;1.77;;;16.20;99.90;;;;;;5070429;28;20040;-74
2022/10/03 10:02:53;;;;;;;6.50;1.27;;;16.20;99.90;;;;;;5053658;28;20083;-75
2022/10/03 10:05:44;;;;;;;7.43;1.35;;;16.30;99.90;;;;;;5080092;28;20104;-73
2022/10/03 10:08:34;;;;;;;9.25;1.48;;;16.20;99.90;;;;;;5078967;28;20074;-74
2022/10/03 10:11:14;;;;;;;10.70;1.60;;;16.10;99.90;;;;;;5060181;28;20047;-73
2022/10/03 10:14:17;;;;;;;7.53;1.73;;;16.10;99.90;;;;;;5079248;28;20093;-74
2022/10/03 10:17:14;;;;;;;11.98;1.40;;;16.20;99.90;;;;;;5075212;28;20501;-73
2022/10/03 10:20:19;;;;;;;5.72;1.17;;;16.20;99.90;;;;;;5070762;28;20131;-75
2022/10/03 10:22:50;;;;;;;8.10;1.70;;;16.20;99.90;;;;;;5086071;28;20040;-73
2022/10/03 10:25:27;;;;;;;6.30;1.40;;;16.10;99.90;;;;;;5089734;28;20387;-73
2022/10/03 10:28:18;;;;;;;6.13;1.92;;;16.10;99.90;;;;;;5090970;28;20039;-72
2022/10/03 10:31:24;;;;;;;4.15;1.02;;;16.10;99.90;;;;;;5088383;28;20040;-73
2022/10/03 10:33:55;;;;;;;12.70;1.20;;;16.10;99.90;;;;;;5083036;28;20115;-73
2022/10/03 10:37:02;;;;;;;5.13;1.25;;;16.10;99.90;;;;;;5078989;28;20102;-73
2022/10/03 10:39:39;;;;;;;5.35;1.40;;;16.10;99.90;;;;;;5087957;28;20044;-74
2022/10/03 10:42:46;;;;;;;6.38;1.40;;;16.20;99.90;;;;;;5080752;28;20497;-74
2022/10/03 10:45:41;;;;;;;6.32;1.23;;;16.20;99.90;;;;;;5022885;28;20045;-75
2022/10/03 10:48:40;;;;;;;5.35;1.42;;;16.30;99.90;;;;;;5075259;28;20060;-73
2022/10/03 10:51:24;;;;;;;10.05;1.60;;;16.30;99.90;;;;;;5079324;28;20064;-73
2022/10/03 10:54:03;;;;;;;6.05;1.38;;;16.30;99.90;;;;;;5080454;28;20040;-73
2022/10/03 10:57:09;;;;;;;6.30;1.38;;;16.30;99.90;;;;;;5067023;28;20052;-74
2022/10/03 11:00:02;;;;;;;7.18;2.10;;;16.30;99.90;;;;;;5084844;28;20070;-74
2022/10/03 11:03:08;;;;;;;8.50;1.40;;;16.40;99.90;;;;;;5075463;28;20059;-73
2022/10/03 11:05:38;;;;;;;6.68;1.55;;;16.30;99.90;;;;;;5091147;28;20044;-73
2022/10/03 11:08:49;;;;;;;7.03;1.17;;;16.30;99.90;;;;;;5093121;28;20052;-73
2022/10/03 11:12:05;;;;;;;6.97;0.90;;;16.30;99.90;;;;;;5094264;28;20047;-74
2022/10/03 11:15:24;;;;;;;7.55;1.88;;;16.30;99.90;;;;;;5088723;28;20393;-71
2022/10/03 11:18:27;;;;;;;3.78;0.80;;;16.30;99.90;;;;;;5078516;28;20040;-71
2022/10/03 11:21:33;;;;;;;6.50;0.93;;;16.40;99.90;;;;;;5073480;28;20598;-71
2022/10/03 11:24:20;;;;;;;5.88;1.10;;;16.40;99.90;;;;;;5075509;28;20127;-71
2022/10/03 11:27:22;;;;;;;6.18;1.02;;;16.40;99.90;;;;;;5087434;28;20035;-71
2022/10/03 11:30:05;;;;;;;4.78;1.13;;;16.40;99.90;;;;;;5075749;28;20044;-71
2022/10/03 11:33:00;;;;;;;4.47;0.80;;;16.50;99.90;;;;;;5092598;28;20044;-71
2022/10/03 11:35:41;;;;;;;5.57;1.00;;;16.50;99.90;;;;;;5092567;28;20489;-71
2022/10/03 11:38:28;;;;;;;6.68;1.10;;;16.60;99.90;;;;;;5094544;28;20082;-70
2022/10/03 11:41:15;;;;;;;6.55;1.27;;;16.60;99.90;;;;;;5093094;28;20113;-71
2022/10/03 11:44:16;;;;;;;6.05;1.30;;;16.50;99.90;;;;;;5091382;28;20052;-70
2022/10/03 11:46:53;;;;;;;9.95;1.45;;;16.30;99.90;;;;;;5092675;28;20096;-72
2022/10/03 11:49:48;;;;;;;6.75;1.38;;;16.30;99.90;;;;;;5090801;28;20043;-71
2022/10/03 11:52:24;;;;;;;9.13;1.27;;;16.30;99.90;;;;;;5080616;28;20052;-69
2022/10/03 11:55:14;;;;;;;6.65;1.00;;;16.30;99.90;;;;;;5080711;28;20028;-71
2022/10/03 11:57:44;;;;;;;3.97;0.95;;;16.40;99.90;;;;;;5055593;28;20044;-71
2022/10/03 12:00:18;;;;;;;3.95;1.48;;;16.30;99.90;;;;;;5088163;28;20394;-72
2022/10/03 12:02:59;;;;;;;10.88;1.67;;;16.40;99.90;;;;;;5088511;28;20041;-72
2022/10/03 12:05:44;;;;;;;6.45;1.17;;;16.40;99.90;;;;;;5087744;28;20097;-72
2022/10/03 12:11:10;;;;;;;5.95;0.95;;;16.40;99.90;;;;;;5092089;28;20515;-71
2022/10/03 12:14:06;;;;;;;6.82;1.50;;;16.50;99.90;;;;;;5072144;28;20037;-72
2022/10/03 12:16:56;;;;;;;6.18;1.73;;;16.40;99.90;;;;;;5072687;28;20041;-72
2022/10/03 12:19:33;;;;;;;9.43;2.38;;;16.50;99.90;;;;;;5056283;28;20048;-72
2022/10/03 12:22:08;;;;;;;5.38;1.23;;;16.40;99.90;;;;;;5056153;28;20119;-72
2022/10/03 12:24:40;;;;;;;4.75;0.95;;;16.40;99.90;;;;;;5055684;28;20056;-72
2022/10/03 12:27:29;;;;;;;4.37;0.93;;;16.40;99.90;;;;;;5088859;28;20055;-71
2022/10/03 12:30:03;;;;;;;8.90;1.67;;;16.40;99.90;;;;;;5091754;28;20036;-70
2022/10/03 12:33:07;;;;;;;4.55;1.00;;;16.50;99.90;;;;;;5071862;28;20070;-71
2022/10/03 12:35:39;;;;;;;5.57;1.33;;;16.40;99.90;;;;;;5089788;28;20093;-72
2022/10/03 12:38:20;;;;;;;5.03;1.02;;;16.50;99.90;;;;;;5074584;28;20537;-71
2022/10/03 12:41:05;;;;;;;6.13;1.67;;;16.50;99.90;;;;;;5090858;28;20028;-71
2022/10/03 12:43:48;;;;;;;5.13;1.10;;;16.50;99.90;;;;;;5057326;28;20044;-71
2022/10/03 12:46:28;;;;;;;4.90;1.52;;;16.50;99.90;;;;;;5073087;28;20438;-71
2022/10/03 12:49:03;;;;;;;4.03;1.05;;;16.60;99.90;;;;;;5091435;28;20044;-72
2022/10/03 12:51:55;;;;;;;4.97;1.00;;;16.50;99.90;;;;;;5079146;28;20045;-71
2022/10/03 12:54:40;;;;;;;5.80;0.80;;;16.60;99.90;;;;;;5079383;28;20440;-71
2022/10/03 12:57:24;;;;;;;5.95;0.90;;;16.50;99.90;;;;;;5090732;28;20404;-71
2022/10/03 13:00:03;;;;;;;6.55;0.90;;;16.70;99.90;;;;;;5091066;28;20036;-72
2022/10/03 13:02:39;;;;;;;3.80;1.15;;;16.70;99.90;;;;;;5073865;28;20131;-72
2022/10/03 13:05:31;;;;;;;6.53;1.70;;;16.90;99.90;;;;;;5090978;28;20040;-72
2022/10/03 13:08:22;;;;;;;6.23;0.97;;;17.00;99.90;;;;;;5090899;28;20043;-72
2022/10/03 13:10:55;;;;;;;7.63;1.00;;;17.00;99.90;;;;;;5090970;28;20032;-72
2022/10/03 13:14:07;;;;;;;3.58;0.80;;;17.00;99.90;;;;;;5090716;28;20029;-72
2022/10/03 13:16:54;;;;;;;3.60;0.98;;;17.10;99.90;;;;;;5074040;28;20097;-72
2022/10/03 13:19:26;;;;;;;4.13;0.80;;;17.10;99.90;;;;;;5071643;28;20657;-72
2022/10/03 13:22:07;;;;;;;7.28;1.02;;;17.10;99.90;;;;;;5071106;28;20046;-72
2022/10/03 13:24:56;;;;;;;3.80;0.93;;;17.00;99.90;;;;;;5068390;28;20054;-72
2022/10/03 13:27:36;;;;;;;3.47;1.15;;;17.00;99.90;;;;;;5091863;28;20508;-72
2022/10/03 13:30:18;;;;;;;5.43;0.93;;;17.00;99.90;;;;;;5088534;28;20135;-72
2022/10/03 13:32:59;;;;;;;8.00;0.80;;;17.00;99.90;;;;;;5078140;28;20040;-72
2022/10/03 13:38:47;;;;;;;6.15;0.98;;;16.90;99.90;;;;;;5071935;28;20590;-72
2022/10/03 13:41:24;;;;;;;6.38;1.48;;;16.80;99.90;;;;;;5075812;28;20044;-75
2022/10/03 13:44:03;;;;;;;4.05;1.08;;;16.80;99.90;;;;;;5064128;28;20043;-73
2022/10/03 13:46:47;;;;;;;4.82;1.27;;;16.80;99.90;;;;;;5054624;28;20086;-74
2022/10/03 13:49:37;;;;;;;5.05;0.82;;;16.80;99.90;;;;;;5068143;28;20139;-75
2022/10/03 13:52:20;;;;;;;3.42;0.88;;;16.80;99.90;;;;;;5090545;28;20493;-74
2022/10/03 13:55:07;;;;;;;4.20;1.15;;;16.80;99.90;;;;;;5072115;28;20048;-73
2022/10/03 13:57:41;;;;;;;3.10;1.05;;;16.80;99.90;;;;;;5083551;28;20039;-75
2022/10/03 14:00:14;;;;;;;5.65;1.83;;;16.90;99.90;;;;;;5072406;28;20058;-76
2022/10/03 14:02:43;;;;;;;;;;;17.00;99.90;;;;;;5056335;28;20040;-73
2022/10/03 14:05:26;;;;;;;2.90;1.27;;;16.90;99.90;;;;;;5063891;28;19922;-74
2022/10/03 14:08:27;;;;;;;6.03;1.63;;;16.80;99.90;;;;;;5089576;28;20111;-74
2022/10/03 14:11:08;;;;;;;8.73;2.15;;;16.90;99.90;;;;;;5060133;28;20048;-74
2022/10/03 14:14:04;;;;;;;3.85;1.10;;;16.80;99.90;;;;;;5088664;28;20123;-74
2022/10/03 14:16:48;;;;;;;7.68;0.90;;;16.80;99.90;;;;;;5088649;28;20059;-75
2022/10/03 14:19:32;;;;;;;4.30;0.77;;;16.70;99.90;;;;;;5087010;28;20048;-74
2022/10/03 14:22:22;;;;;;;4.05;0.98;;;16.70;99.90;;;;;;5076931;28;20050;-74
2022/10/03 14:25:20;;;;;;;4.30;1.00;;;16.70;99.90;;;;;;5053749;28;20714;-73
2022/10/03 14:27:53;;;;;;;5.75;1.02;;;16.60;99.90;;;;;;5071459;28;20497;-75
2022/10/03 14:30:23;;;;;;;;;;;16.50;99.90;;;;;;5078085;28;20044;-74
2022/10/03 14:32:58;;;;;;;3.70;0.80;;;16.50;99.90;;;;;;5073087;28;20327;-74
2022/10/03 14:35:45;;;;;;;4.80;1.10;;;16.50;99.90;;;;;;5089804;28;20040;-74
2022/10/03 14:41:25;;;;;;;4.10;0.90;;;16.50;99.90;;;;;;5086555;28;20074;-74
2022/10/03 14:44:34;;;;;;;6.83;1.10;;;16.50;99.90;;;;;;5069289;28;20078;-74
2022/10/03 14:47:07;;;;;;;4.45;1.25;;;16.50;99.90;;;;;;5084576;28;20369;-74